FAPE

Verwoerd International Airport

Airport
ICAO code
FAPE
IATA Code
PLZ
Summary
ICAO Region
AFI
ICAO Territory
Location

, Eastern Cape

Serving
Port Elizabeth
Elevation
226 ft
Coordinates
33° 59' 6" S , 25° 37' 2" E
Metar
Observation
FAPE 071800Z 07004KT CAVOK 15/14 Q1025 NOSIG
Station
Port Elizabeth, Port E Apt
Date/Time
2022-10-07 18:00:00
Wind direction
70°
Wind speed
04 kts
Lowest cloud amount
clouds and visibility OK
Temperature
15°C
Dew point
14°C
Humidity
93%
QNH
1025 hPa
Weather condition
n/a

Runways

Designator Length Width Surface Rops
10/28 1178 18 GRS No/No
17/35 1677 46 ASP Yes/Yes
8/26 1980 46 ASP Yes/Yes

SKYbrary Partners:

Safety knowledge contributed by: